Time;durP1;ratioP1;P1;durP2;ratioP2;P2;SDS_P1;SDS_P2;PMS_P1;PMS_P2;Temp;Humidity;BMP_temperature;BMP_pressure;BME280_temperature;BME280_humidity;BME280_pressure;Samples;Min_cycle;Max_cycle;Signal;HPM_P1;HPM_P2
2023/10/29 00:01:00;;;;;;;9.60;8.60;;;8.80;87.50;;;;;;6244800;28;20296;-82
2023/10/29 00:04:04;;;;;;;10.27;9.10;;;8.80;87.60;;;;;;6241506;28;20242;-83
2023/10/29 00:07:07;;;;;;;11.40;10.30;;;8.80;87.70;;;;;;6244921;28;20849;-83
2023/10/29 00:10:12;;;;;;;9.87;8.97;;;8.80;87.70;;;;;;6240446;28;20298;-82
2023/10/29 00:13:15;;;;;;;11.50;8.80;;;8.90;87.80;;;;;;6243549;28;20246;-84
2023/10/29 00:16:18;;;;;;;9.20;8.30;;;8.90;87.70;;;;;;6242596;28;20341;-86
2023/10/29 00:19:21;;;;;;;9.03;8.27;;;8.90;87.70;;;;;;6248922;28;20264;-84
2023/10/29 00:22:25;;;;;;;11.37;9.50;;;8.90;87.60;;;;;;6234028;28;20907;-82
2023/10/29 00:25:29;;;;;;;12.53;9.80;;;8.90;87.70;;;;;;6237378;28;20980;-84
2023/10/29 00:28:33;;;;;;;9.07;8.43;;;8.90;87.80;;;;;;6233557;28;20235;-84
2023/10/29 00:31:36;;;;;;;9.00;8.30;;;8.90;87.70;;;;;;6240973;28;20296;-85
2023/10/29 00:34:39;;;;;;;10.10;8.20;;;8.80;87.70;;;;;;6243023;28;20241;-84
2023/10/29 00:37:42;;;;;;;9.93;7.47;;;8.90;87.70;;;;;;6255742;28;20253;-81
2023/10/29 00:40:47;;;;;;;8.57;7.63;;;8.80;87.80;;;;;;6244752;28;20726;-84
2023/10/29 00:43:51;;;;;;;7.60;6.90;;;8.80;87.70;;;;;;6245989;28;20235;-84
2023/10/29 00:46:54;;;;;;;6.90;6.50;;;8.80;87.70;;;;;;6264223;28;20238;-83
2023/10/29 00:49:57;;;;;;;7.20;6.80;;;8.70;87.80;;;;;;6258335;28;20230;-81
2023/10/29 00:53:00;;;;;;;10.47;7.10;;;8.70;87.80;;;;;;6238284;28;20231;-83
2023/10/29 00:56:08;;;;;;;7.60;6.90;;;8.70;87.80;;;;;;6233781;28;20235;-85
2023/10/29 00:59:12;;;;;;;7.07;6.57;;;8.60;87.80;;;;;;6228818;28;20246;-84
2023/10/29 01:02:15;;;;;;;9.13;6.80;;;8.60;87.80;;;;;;6246691;28;20242;-85
2023/10/29 01:05:19;;;;;;;6.57;6.13;;;8.60;87.80;;;;;;6240696;28;20245;-84
2023/10/29 01:08:23;;;;;;;6.87;6.40;;;8.70;87.80;;;;;;6233887;28;20467;-84
2023/10/29 01:11:27;;;;;;;7.37;6.90;;;8.60;87.80;;;;;;6241924;28;20231;-82
2023/10/29 01:14:31;;;;;;;6.77;6.20;;;8.70;87.80;;;;;;6239612;28;20250;-83
2023/10/29 01:17:34;;;;;;;7.03;6.43;;;8.70;87.80;;;;;;6238314;28;20249;-83
2023/10/29 01:20:38;;;;;;;9.60;7.07;;;8.70;87.80;;;;;;6232357;28;20250;-81
2023/10/29 01:23:42;;;;;;;6.83;6.27;;;8.70;87.80;;;;;;6236230;28;20258;-81
2023/10/29 01:26:46;;;;;;;7.53;6.70;;;8.70;87.70;;;;;;6243684;28;20235;-82
2023/10/29 01:29:49;;;;;;;7.47;6.87;;;8.70;87.70;;;;;;6252815;28;20253;-81
2023/10/29 01:32:53;;;;;;;6.93;6.40;;;8.70;87.60;;;;;;6252984;28;20238;-83
2023/10/29 01:35:56;;;;;;;6.53;6.13;;;8.70;87.70;;;;;;6245164;28;20246;-83
2023/10/29 01:38:59;;;;;;;10.47;6.83;;;8.70;87.70;;;;;;6233195;28;20261;-82
2023/10/29 01:42:04;;;;;;;7.23;6.53;;;8.60;87.80;;;;;;6240373;28;20239;-82
2023/10/29 01:45:08;;;;;;;6.00;5.70;;;8.60;87.80;;;;;;6241278;28;20258;-81
2023/10/29 01:48:11;;;;;;;6.37;5.97;;;8.70;87.80;;;;;;6236216;28;20310;-83
2023/10/29 01:51:15;;;;;;;7.63;6.57;;;8.70;87.80;;;;;;6246133;28;20247;-80
2023/10/29 01:54:18;;;;;;;7.10;6.50;;;8.70;87.80;;;;;;6275703;28;20238;-83
2023/10/29 01:57:23;;;;;;;6.37;5.97;;;8.80;87.80;;;;;;6258405;28;20323;-83
2023/10/29 02:00:26;;;;;;;7.73;5.73;;;8.80;87.70;;;;;;6253661;28;20891;-84
2023/10/29 02:03:29;;;;;;;5.97;5.47;;;8.80;87.70;;;;;;6240008;28;20674;-83
2023/10/29 02:06:38;;;;;;;5.77;5.37;;;8.80;87.80;;;;;;6237200;28;20234;-83
2023/10/29 02:09:44;;;;;;;5.30;5.00;;;8.80;87.80;;;;;;6245989;28;20241;-83
2023/10/29 02:12:48;;;;;;;5.70;5.20;;;8.80;87.70;;;;;;6238304;28;20241;-82
2023/10/29 02:15:52;;;;;;;6.90;5.30;;;8.80;87.70;;;;;;6253705;28;20729;-83
2023/10/29 02:18:55;;;;;;;6.23;5.73;;;8.80;87.70;;;;;;6242649;28;20250;-85
2023/10/29 02:22:02;;;;;;;5.67;5.37;;;8.90;87.70;;;;;;6250618;28;20230;-83
2023/10/29 02:25:06;;;;;;;5.53;5.13;;;8.90;87.70;;;;;;6250892;28;20238;-83
2023/10/29 02:28:09;;;;;;;5.10;4.90;;;8.90;87.80;;;;;;6254220;28;20257;-83
2023/10/29 02:31:17;;;;;;;5.30;5.00;;;9.00;87.70;;;;;;6244393;28;20368;-82
2023/10/29 02:34:21;;;;;;;6.33;5.50;;;9.00;87.70;;;;;;6260659;28;20230;-79
2023/10/29 02:37:25;;;;;;;7.27;5.43;;;9.00;87.70;;;;;;6245083;28;20242;-82
2023/10/29 02:40:28;;;;;;;5.90;5.40;;;9.00;87.60;;;;;;6240263;28;20238;-83
2023/10/29 02:43:31;;;;;;;5.10;4.83;;;9.00;87.60;;;;;;6230922;28;20247;-81
2023/10/29 02:46:36;;;;;;;6.63;6.03;;;9.00;87.50;;;;;;6254098;28;20311;-83
2023/10/29 02:49:39;;;;;;;5.97;5.57;;;9.00;87.40;;;;;;6252271;28;20229;-81
2023/10/29 02:52:46;;;;;;;5.20;4.90;;;9.00;87.40;;;;;;6253007;28;20234;-82
2023/10/29 02:55:50;;;;;;;5.53;5.23;;;9.10;87.50;;;;;;6244928;28;20946;-82
2023/10/29 02:58:53;;;;;;;5.93;5.53;;;9.10;87.30;;;;;;6245124;28;20242;-83
2023/10/29 03:01:56;;;;;;;6.50;6.00;;;9.10;87.40;;;;;;6241566;28;20250;-83
2023/10/29 03:04:59;;;;;;;6.30;5.93;;;9.10;87.30;;;;;;6253967;28;20237;-84
2023/10/29 03:08:04;;;;;;;6.33;5.70;;;9.20;87.30;;;;;;6228835;28;20316;-81
2023/10/29 03:11:07;;;;;;;6.40;5.93;;;9.20;87.20;;;;;;6251069;28;20241;-84
2023/10/29 03:14:10;;;;;;;9.23;7.40;;;9.20;87.20;;;;;;6251887;28;20307;-83
2023/10/29 03:17:13;;;;;;;7.27;6.63;;;9.10;87.20;;;;;;6228301;28;20227;-85
2023/10/29 03:20:17;;;;;;;6.77;6.37;;;9.20;87.20;;;;;;6219201;28;20226;-85
2023/10/29 03:23:23;;;;;;;7.17;6.63;;;9.20;87.20;;;;;;6215879;28;20251;-82
2023/10/29 03:26:28;;;;;;;5.93;5.50;;;9.20;87.10;;;;;;6226310;28;20484;-85
2023/10/29 03:29:31;;;;;;;6.53;5.90;;;9.20;87.20;;;;;;6214905;28;20270;-81
2023/10/29 03:32:35;;;;;;;6.30;5.97;;;9.20;87.00;;;;;;6231847;28;20337;-84
2023/10/29 03:35:38;;;;;;;7.20;6.50;;;9.20;86.90;;;;;;6241024;28;20699;-84
2023/10/29 03:38:42;;;;;;;8.30;7.30;;;9.20;87.00;;;;;;6232110;28;20238;-83
2023/10/29 03:41:46;;;;;;;6.43;5.97;;;9.20;87.10;;;;;;6239387;28;20234;-85
2023/10/29 03:44:50;;;;;;;6.10;5.60;;;9.20;87.20;;;;;;6235918;28;20258;-84
2023/10/29 03:47:53;;;;;;;6.07;5.63;;;9.20;87.30;;;;;;6238220;28;20883;-85
2023/10/29 03:50:56;;;;;;;5.90;5.23;;;9.30;87.20;;;;;;6238908;28;20238;-83
2023/10/29 03:54:01;;;;;;;6.07;5.57;;;9.20;87.30;;;;;;6243477;28;20243;-84
2023/10/29 03:57:05;;;;;;;7.53;5.70;;;9.20;87.40;;;;;;6233755;28;20243;-84
2023/10/29 04:00:10;;;;;;;6.23;5.63;;;9.20;87.50;;;;;;6233169;28;20265;-84
2023/10/29 04:03:14;;;;;;;5.40;5.00;;;9.20;87.60;;;;;;6255987;28;20727;-85
2023/10/29 04:06:17;;;;;;;5.47;5.07;;;9.20;87.50;;;;;;6232178;28;20256;-83
2023/10/29 04:09:22;;;;;;;5.57;5.17;;;9.20;87.60;;;;;;6257550;28;20602;-85
2023/10/29 04:12:27;;;;;;;5.40;5.00;;;9.20;87.70;;;;;;6259732;28;20238;-84
2023/10/29 04:15:31;;;;;;;5.70;5.20;;;9.20;87.60;;;;;;6248783;28;20747;-83
2023/10/29 04:18:34;;;;;;;7.33;5.20;;;9.20;87.70;;;;;;6252768;28;20314;-81
2023/10/29 04:21:37;;;;;;;5.73;5.17;;;9.20;87.70;;;;;;6250080;28;20818;-84
2023/10/29 04:24:43;;;;;;;5.27;4.80;;;9.30;87.70;;;;;;6258203;28;20644;-85
2023/10/29 04:27:46;;;;;;;5.70;5.20;;;9.30;87.80;;;;;;6244503;28;20246;-83
2023/10/29 04:30:50;;;;;;;5.20;4.80;;;9.40;87.60;;;;;;6242009;28;20258;-82
2023/10/29 04:33:53;;;;;;;5.37;4.90;;;9.40;87.60;;;;;;6256839;28;20284;-85
2023/10/29 04:36:59;;;;;;;6.43;5.20;;;9.40;87.60;;;;;;6235697;28;20231;-85
2023/10/29 04:40:04;;;;;;;5.10;4.70;;;9.40;87.70;;;;;;6235750;28;20250;-84
2023/10/29 04:43:08;;;;;;;6.13;5.00;;;9.40;87.70;;;;;;6258223;28;20640;-82
2023/10/29 04:46:12;;;;;;;5.27;4.77;;;9.40;87.70;;;;;;6246768;28;20243;-84
2023/10/29 04:49:16;;;;;;;5.00;4.70;;;9.40;87.70;;;;;;6255645;28;20234;-85
2023/10/29 04:52:19;;;;;;;5.77;5.10;;;9.40;87.70;;;;;;6250558;28;20312;-85
2023/10/29 04:55:24;;;;;;;5.33;4.80;;;9.50;87.70;;;;;;6238143;28;20624;-84
2023/10/29 04:58:28;;;;;;;5.53;5.00;;;9.50;87.70;;;;;;6233024;28;20231;-82
2023/10/29 05:01:31;;;;;;;5.13;4.83;;;9.40;87.80;;;;;;6254262;28;20245;-82
2023/10/29 05:04:37;;;;;;;8.67;5.10;;;9.50;87.80;;;;;;6254396;28;20245;-83
2023/10/29 05:07:41;;;;;;;5.60;5.10;;;9.40;87.90;;;;;;6241647;28;20261;-83
2023/10/29 05:10:46;;;;;;;6.20;4.60;;;9.40;88.00;;;;;;6236796;28;20234;-83
2023/10/29 05:13:50;;;;;;;4.97;4.57;;;9.50;87.70;;;;;;6242195;28;20250;-84
2023/10/29 05:16:53;;;;;;;5.30;4.90;;;9.50;87.70;;;;;;6244405;28;20752;-86
2023/10/29 05:19:57;;;;;;;5.23;4.83;;;9.50;87.70;;;;;;6256183;28;20320;-85
2023/10/29 05:23:00;;;;;;;5.07;4.67;;;9.50;87.80;;;;;;6257492;28;21755;-83
2023/10/29 05:26:05;;;;;;;4.63;4.33;;;9.50;87.70;;;;;;6233031;28;20246;-82
2023/10/29 05:29:09;;;;;;;5.43;4.93;;;9.50;87.80;;;;;;6245425;28;20242;-84
2023/10/29 05:32:12;;;;;;;4.83;4.53;;;9.60;87.90;;;;;;6236324;28;20322;-83
2023/10/29 05:35:17;;;;;;;5.50;5.03;;;9.60;87.80;;;;;;6247649;28;20321;-84
2023/10/29 05:38:20;;;;;;;4.80;4.60;;;9.60;88.00;;;;;;6237504;28;20242;-84
2023/10/29 05:41:25;;;;;;;4.40;4.20;;;9.70;87.90;;;;;;6212782;28;20243;-81
2023/10/29 05:44:29;;;;;;;5.03;4.50;;;9.70;88.00;;;;;;6231802;28;20330;-85
2023/10/29 05:47:32;;;;;;;8.80;4.90;;;9.70;88.00;;;;;;6226112;28;20235;-83
2023/10/29 05:50:35;;;;;;;4.80;4.43;;;9.80;88.00;;;;;;6234392;28;20898;-82
2023/10/29 05:53:39;;;;;;;5.33;4.80;;;9.80;88.00;;;;;;6235817;28;20268;-82
2023/10/29 05:56:44;;;;;;;4.20;4.00;;;10.00;88.00;;;;;;6242666;28;20314;-81
2023/10/29 05:59:47;;;;;;;5.20;4.80;;;10.00;87.80;;;;;;6251286;28;20235;-83
2023/10/29 06:02:50;;;;;;;6.00;4.10;;;10.00;87.50;;;;;;6235170;28;20757;-83
2023/10/29 06:05:55;;;;;;;5.03;4.50;;;10.00;87.60;;;;;;6236603;28;20780;-81
2023/10/29 06:08:59;;;;;;;4.87;4.47;;;10.10;87.50;;;;;;6238824;28;20281;-82
2023/10/29 06:12:20;;;;;;;6.67;4.67;;;10.10;87.30;;;;;;6232504;28;20686;-83
2023/10/29 06:15:23;;;;;;;5.43;5.00;;;10.10;87.30;;;;;;6250595;28;20399;-83
2023/10/29 06:18:27;;;;;;;4.77;4.37;;;10.10;87.30;;;;;;6239440;28;20625;-83
2023/10/29 06:21:30;;;;;;;5.33;4.57;;;10.20;87.10;;;;;;6256055;28;20230;-84
2023/10/29 06:24:34;;;;;;;4.47;4.20;;;10.30;87.00;;;;;;6246924;28;20714;-85
2023/10/29 06:27:38;;;;;;;4.63;4.33;;;10.30;87.00;;;;;;6246525;28;20233;-85
2023/10/29 06:30:41;;;;;;;4.00;3.73;;;10.30;86.90;;;;;;6251516;28;20257;-85
2023/10/29 06:33:45;;;;;;;4.20;4.00;;;10.30;87.00;;;;;;6244109;28;20229;-86
2023/10/29 06:36:48;;;;;;;4.90;3.80;;;10.30;86.80;;;;;;6244985;28;20238;-85
2023/10/29 06:39:52;;;;;;;5.83;4.40;;;10.30;87.00;;;;;;6248687;28;20737;-86
2023/10/29 06:42:56;;;;;;;4.17;3.90;;;10.40;87.00;;;;;;6246824;28;20238;-85
2023/10/29 06:46:01;;;;;;;4.27;3.97;;;10.40;86.90;;;;;;6251196;28;20234;-85
2023/10/29 06:49:04;;;;;;;5.37;4.20;;;10.40;86.90;;;;;;6232310;28;20226;-85
2023/10/29 06:52:08;;;;;;;4.77;4.40;;;10.40;86.90;;;;;;6240310;28;20235;-85
2023/10/29 06:55:12;;;;;;;4.70;4.40;;;10.40;86.80;;;;;;6241963;28;20234;-85
2023/10/29 06:58:17;;;;;;;4.70;4.33;;;10.40;86.90;;;;;;6250513;28;20235;-84
2023/10/29 07:01:21;;;;;;;4.07;3.73;;;10.40;87.00;;;;;;6243378;28;20239;-84
2023/10/29 07:04:24;;;;;;;4.63;4.30;;;10.50;86.90;;;;;;6247846;28;20239;-85
2023/10/29 07:07:29;;;;;;;4.60;4.17;;;10.50;86.70;;;;;;6244792;28;20238;-86
2023/10/29 07:10:33;;;;;;;4.93;4.43;;;10.50;86.70;;;;;;6251824;28;20603;-85
2023/10/29 07:13:38;;;;;;;4.47;4.17;;;10.50;86.80;;;;;;6241494;28;20253;-86
2023/10/29 07:16:44;;;;;;;4.20;4.00;;;10.50;86.80;;;;;;6211635;28;20235;-86
2023/10/29 07:19:47;;;;;;;5.03;4.53;;;10.50;86.80;;;;;;6212487;28;20231;-85
2023/10/29 07:22:50;;;;;;;4.40;4.07;;;10.40;86.70;;;;;;6211297;28;20281;-84
2023/10/29 07:25:54;;;;;;;4.40;4.10;;;10.40;86.80;;;;;;6209322;28;20742;-85
2023/10/29 07:28:58;;;;;;;4.17;3.70;;;10.50;86.70;;;;;;6212520;28;20322;-85
2023/10/29 07:32:02;;;;;;;5.60;4.13;;;10.50;86.70;;;;;;6213064;28;20263;-85
2023/10/29 07:35:06;;;;;;;6.93;4.13;;;10.50;86.50;;;;;;6213530;28;20263;-84
2023/10/29 07:38:09;;;;;;;5.27;4.30;;;10.50;86.40;;;;;;6211594;28;20270;-83
2023/10/29 07:41:12;;;;;;;4.27;3.87;;;10.50;86.30;;;;;;6213411;28;20240;-84
2023/10/29 07:44:18;;;;;;;5.37;4.80;;;10.60;86.20;;;;;;6221172;28;20318;-86
2023/10/29 07:47:23;;;;;;;8.97;5.30;;;10.60;86.00;;;;;;6205043;28;20250;-84
2023/10/29 07:50:31;;;;;;;5.50;5.10;;;10.60;85.90;;;;;;6210709;28;20268;-84
2023/10/29 07:53:34;;;;;;;5.20;4.63;;;10.60;85.60;;;;;;6212961;28;20306;-83
2023/10/29 07:56:37;;;;;;;4.47;4.17;;;10.70;85.50;;;;;;6216988;28;20250;-86
2023/10/29 07:59:43;;;;;;;5.00;4.47;;;10.70;85.30;;;;;;6210654;28;20586;-86
2023/10/29 08:02:47;;;;;;;5.27;4.40;;;10.60;85.50;;;;;;6213173;28;20497;-84
2023/10/29 08:05:52;;;;;;;5.93;5.37;;;10.60;85.40;;;;;;6215959;28;20377;-85
2023/10/29 08:08:56;;;;;;;7.23;5.00;;;10.60;85.50;;;;;;6218060;28;20243;-85
2023/10/29 08:11:59;;;;;;;5.50;5.10;;;10.60;85.60;;;;;;6217708;28;20289;-85
2023/10/29 08:15:04;;;;;;;6.53;4.93;;;10.60;85.70;;;;;;6225213;28;20390;-85
2023/10/29 08:18:11;;;;;;;5.00;4.70;;;10.60;85.70;;;;;;6216417;28;20861;-85
2023/10/29 08:21:15;;;;;;;5.10;4.60;;;10.60;85.90;;;;;;6224217;28;20313;-85
2023/10/29 08:24:20;;;;;;;5.30;4.83;;;10.60;85.90;;;;;;6214798;28;20263;-86
2023/10/29 08:27:23;;;;;;;4.97;4.53;;;10.60;85.80;;;;;;6207344;28;20329;-85
2023/10/29 08:30:28;;;;;;;4.83;4.40;;;10.60;85.70;;;;;;6212866;28;20243;-82
2023/10/29 08:33:32;;;;;;;11.47;7.73;;;10.70;85.70;;;;;;6216765;28;20254;-83
2023/10/29 08:36:35;;;;;;;7.27;5.10;;;10.70;85.50;;;;;;6213011;28;20239;-84
2023/10/29 08:39:39;;;;;;;6.07;4.53;;;10.70;85.50;;;;;;6216855;28;20239;-84
2023/10/29 08:42:43;;;;;;;13.10;8.87;;;10.80;85.20;;;;;;6220990;28;20606;-84
2023/10/29 08:45:48;;;;;;;6.40;5.07;;;10.90;84.80;;;;;;6214471;28;20746;-85
2023/10/29 08:48:53;;;;;;;6.10;5.60;;;10.90;84.80;;;;;;6215948;28;20322;-83
2023/10/29 08:51:57;;;;;;;4.93;4.60;;;10.90;85.00;;;;;;6214291;28;20236;-83
2023/10/29 08:55:00;;;;;;;5.47;4.97;;;11.00;84.90;;;;;;6216297;28;20239;-85
2023/10/29 08:58:04;;;;;;;4.40;4.10;;;11.00;84.70;;;;;;6214906;28;20869;-83
2023/10/29 09:01:11;;;;;;;7.53;4.60;;;11.10;84.80;;;;;;6214802;28;20468;-84
2023/10/29 09:04:14;;;;;;;4.80;4.50;;;11.10;84.70;;;;;;6207640;28;20243;-86
2023/10/29 09:07:19;;;;;;;5.00;4.70;;;11.10;84.50;;;;;;6220496;28;20249;-83
2023/10/29 09:10:23;;;;;;;5.70;5.23;;;11.20;84.50;;;;;;6214979;28;20723;-84
2023/10/29 09:13:27;;;;;;;5.53;5.13;;;11.40;84.00;;;;;;6221638;28;20368;-83
2023/10/29 09:16:32;;;;;;;5.07;4.67;;;11.50;83.40;;;;;;6206087;28;20232;-82
2023/10/29 09:19:35;;;;;;;4.53;4.23;;;11.50;83.00;;;;;;6213836;28;20239;-83
2023/10/29 09:22:39;;;;;;;5.37;4.87;;;11.60;83.20;;;;;;6214206;28;20800;-84
2023/10/29 09:25:44;;;;;;;5.33;4.63;;;11.70;82.80;;;;;;6220258;28;20250;-84
2023/10/29 09:28:47;;;;;;;4.60;4.30;;;11.70;82.30;;;;;;6216867;28;20223;-83
2023/10/29 09:31:53;;;;;;;4.97;4.43;;;11.70;82.20;;;;;;6214392;28;20692;-82
2023/10/29 09:34:57;;;;;;;5.03;4.70;;;11.80;82.00;;;;;;6213035;28;20338;-83
2023/10/29 09:38:00;;;;;;;4.87;4.37;;;11.90;81.40;;;;;;6213081;28;20285;-80
2023/10/29 09:41:04;;;;;;;5.10;4.60;;;12.00;80.90;;;;;;6212763;28;20786;-81
2023/10/29 09:44:08;;;;;;;5.20;4.80;;;12.10;80.80;;;;;;6215608;28;20239;-83
2023/10/29 09:47:17;;;;;;;5.67;4.77;;;12.20;80.30;;;;;;6209259;28;20731;-83
2023/10/29 09:50:21;;;;;;;4.90;4.53;;;12.20;80.00;;;;;;6245051;28;20246;-84
2023/10/29 09:53:25;;;;;;;4.43;4.10;;;12.20;79.80;;;;;;6237898;28;20333;-81
2023/10/29 09:56:29;;;;;;;4.20;3.80;;;12.20;79.30;;;;;;6253962;28;20238;-81
2023/10/29 09:59:33;;;;;;;5.20;3.87;;;12.30;79.00;;;;;;6238750;28;20231;-82
2023/10/29 10:02:52;;;;;;;4.50;4.20;;;12.20;79.20;;;;;;6230463;28;20234;-83
2023/10/29 10:05:56;;;;;;;5.73;4.00;;;12.20;79.10;;;;;;6245368;28;20231;-83
2023/10/29 10:08:59;;;;;;;5.37;4.40;;;12.20;79.40;;;;;;6246785;28;20234;-82
2023/10/29 10:12:04;;;;;;;4.50;4.10;;;12.30;79.00;;;;;;6246862;28;20291;-82
2023/10/29 10:15:09;;;;;;;4.77;4.23;;;12.30;78.60;;;;;;6252864;28;20244;-83
2023/10/29 10:18:14;;;;;;;3.80;3.50;;;12.30;78.70;;;;;;6255636;28;20287;-82
2023/10/29 10:21:20;;;;;;;4.13;3.93;;;12.20;78.90;;;;;;6247339;28;20246;-83
2023/10/29 10:24:36;;;;;;;3.60;3.50;;;12.10;79.70;;;;;;6238763;28;20627;-80
2023/10/29 10:27:49;;;;;;;4.17;3.90;;;12.00;79.20;;;;;;6232591;28;20227;-81
2023/10/29 10:30:52;;;;;;;4.57;4.20;;;12.10;79.10;;;;;;6247104;28;20317;-82
2023/10/29 10:34:12;;;;;;;4.80;4.43;;;12.10;79.10;;;;;;6239267;28;20721;-83
2023/10/29 10:37:16;;;;;;;3.90;3.70;;;12.10;79.20;;;;;;6231496;28;20235;-82
2023/10/29 10:40:23;;;;;;;10.07;9.00;;;12.10;78.90;;;;;;6212622;28;20236;-82
2023/10/29 10:43:28;;;;;;;7.07;3.87;;;12.20;78.90;;;;;;6207582;28;20723;-83
2023/10/29 10:46:35;;;;;;;4.00;3.80;;;12.20;78.90;;;;;;6220346;28;20242;-82
2023/10/29 10:49:42;;;;;;;4.60;3.20;;;12.30;78.00;;;;;;6221753;28;20769;-82
2023/10/29 10:52:46;;;;;;;3.60;3.30;;;12.30;77.80;;;;;;6211989;28;20236;-83
2023/10/29 10:55:50;;;;;;;3.33;3.23;;;12.30;77.90;;;;;;6209786;28;20330;-82
2023/10/29 10:59:07;;;;;;;5.30;3.10;;;12.50;77.40;;;;;;6214333;28;20224;-84
2023/10/29 11:02:13;;;;;;;3.30;3.10;;;12.50;77.10;;;;;;6213475;28;20234;-82
2023/10/29 11:05:18;;;;;;;2.90;2.63;;;12.50;77.40;;;;;;6226074;28;20318;-82
2023/10/29 11:08:23;;;;;;;5.53;3.23;;;12.70;76.80;;;;;;6239288;28;20242;-80
2023/10/29 11:11:30;;;;;;;3.50;3.20;;;12.70;76.60;;;;;;6214078;28;20746;-83
2023/10/29 11:14:33;;;;;;;2.80;2.80;;;12.80;76.50;;;;;;6220987;28;21344;-81
2023/10/29 11:17:57;;;;;;;3.37;3.17;;;12.90;76.70;;;;;;6232839;28;20353;-84
2023/10/29 11:21:03;;;;;;;3.30;3.10;;;13.10;76.60;;;;;;6246031;28;20709;-82
2023/10/29 11:24:27;;;;;;;3.50;3.30;;;13.30;76.00;;;;;;6256061;28;20243;-82
2023/10/29 11:27:35;;;;;;;3.30;3.00;;;13.40;75.10;;;;;;6235040;28;20239;-80
2023/10/29 11:30:38;;;;;;;3.13;3.03;;;13.50;74.70;;;;;;6254709;28;20254;-83
2023/10/29 11:33:43;;;;;;;5.37;4.90;;;13.50;74.60;;;;;;6237600;28;20240;-81
2023/10/29 11:36:50;;;;;;;3.47;3.13;;;13.50;74.90;;;;;;6263466;28;20234;-81
2023/10/29 11:39:53;;;;;;;4.03;3.60;;;13.50;75.10;;;;;;6254934;28;20881;-82
2023/10/29 11:43:13;;;;;;;3.97;3.57;;;13.50;74.80;;;;;;6260511;28;20246;-78
2023/10/29 11:46:16;;;;;;;5.23;3.67;;;13.50;74.50;;;;;;6245270;28;20231;-82
2023/10/29 11:49:20;;;;;;;3.60;3.40;;;13.60;75.00;;;;;;6266290;28;20241;-80
2023/10/29 11:52:30;;;;;;;3.20;3.10;;;13.70;74.10;;;;;;6268160;28;20243;-79
2023/10/29 11:55:40;;;;;;;3.23;2.90;;;13.70;73.90;;;;;;6264581;28;20247;-81
2023/10/29 11:58:44;;;;;;;4.40;3.47;;;13.70;73.90;;;;;;6252020;28;20272;-80
2023/10/29 12:01:47;;;;;;;3.80;3.70;;;13.80;73.60;;;;;;6266769;28;20238;-79
2023/10/29 12:04:50;;;;;;;5.20;4.70;;;13.80;73.60;;;;;;6267224;28;20253;-80
2023/10/29 12:08:00;;;;;;;4.03;3.73;;;13.90;73.50;;;;;;6263597;28;20246;-79
2023/10/29 12:11:04;;;;;;;3.63;3.37;;;13.90;73.30;;;;;;6262155;28;20250;-80
2023/10/29 12:14:07;;;;;;;3.40;3.20;;;14.00;72.60;;;;;;6266370;28;20304;-80
2023/10/29 12:17:11;;;;;;;2.70;2.60;;;14.00;72.40;;;;;;6262689;28;20222;-78
2023/10/29 12:20:22;;;;;;;3.10;3.00;;;14.10;72.00;;;;;;6267653;28;20257;-79
2023/10/29 12:23:27;;;;;;;3.13;2.97;;;14.20;71.30;;;;;;6260031;28;20245;-81
2023/10/29 12:26:31;;;;;;;3.40;3.10;;;14.30;71.50;;;;;;6250870;28;20614;-80
2023/10/29 12:29:34;;;;;;;3.03;2.93;;;14.40;71.50;;;;;;6240714;28;20704;-78
2023/10/29 12:32:40;;;;;;;5.80;2.60;;;14.60;71.40;;;;;;6263268;28;20261;-84
2023/10/29 12:35:50;;;;;;;2.60;2.50;;;14.60;70.70;;;;;;6286670;28;20232;-78
2023/10/29 12:38:55;;;;;;;2.50;2.40;;;14.40;70.90;;;;;;6279454;28;20294;-81
2023/10/29 12:41:58;;;;;;;2.90;2.70;;;14.50;71.10;;;;;;6278227;28;20425;-77
2023/10/29 12:45:01;;;;;;;3.37;2.50;;;14.50;71.20;;;;;;6274980;28;20222;-80
2023/10/29 12:48:11;;;;;;;3.00;2.90;;;14.50;70.90;;;;;;6280446;28;20226;-79
2023/10/29 12:51:23;;;;;;;2.50;2.40;;;14.40;70.90;;;;;;6278970;28;20234;-78
2023/10/29 12:54:29;;;;;;;2.97;2.33;;;14.40;71.00;;;;;;6274639;28;20247;-80
2023/10/29 12:57:32;;;;;;;3.10;2.90;;;14.50;71.00;;;;;;6271817;28;20273;-77
2023/10/29 13:00:35;;;;;;;2.60;2.50;;;14.50;71.00;;;;;;6289518;28;20234;-77
2023/10/29 13:03:39;;;;;;;3.03;2.70;;;14.50;71.10;;;;;;6272771;28;20249;-78
2023/10/29 13:06:42;;;;;;;2.53;2.43;;;14.60;70.80;;;;;;6280248;28;20263;-79
2023/10/29 13:09:52;;;;;;;2.97;2.87;;;14.60;71.00;;;;;;6274108;28;20255;-78
2023/10/29 13:12:55;;;;;;;3.20;3.10;;;14.50;71.00;;;;;;6265529;28;20218;-82
2023/10/29 13:15:58;;;;;;;2.73;2.60;;;14.60;71.50;;;;;;6262204;28;20893;-81
2023/10/29 13:19:01;;;;;;;3.60;3.40;;;14.50;71.00;;;;;;6241563;28;20282;-84
2023/10/29 13:22:05;;;;;;;2.90;2.80;;;14.40;71.30;;;;;;6246806;28;20243;-83
2023/10/29 13:25:11;;;;;;;3.27;3.17;;;14.40;71.40;;;;;;6248448;28;20329;-83
2023/10/29 13:28:14;;;;;;;3.20;3.00;;;14.40;71.60;;;;;;6244168;28;20230;-83
2023/10/29 13:31:18;;;;;;;3.43;3.33;;;14.40;71.70;;;;;;6238573;28;20254;-82
2023/10/29 13:34:23;;;;;;;3.80;3.60;;;14.30;71.40;;;;;;6220881;28;20284;-84
2023/10/29 13:37:28;;;;;;;3.97;3.80;;;14.20;71.40;;;;;;6261413;28;20756;-82
2023/10/29 13:40:37;;;;;;;4.07;3.77;;;14.20;71.80;;;;;;6252129;28;20230;-84
2023/10/29 13:43:40;;;;;;;4.03;3.63;;;14.20;72.10;;;;;;6234196;28;20246;-83
2023/10/29 13:46:44;;;;;;;3.50;3.40;;;14.10;72.20;;;;;;6240385;28;20238;-83
2023/10/29 13:49:47;;;;;;;3.60;3.50;;;14.10;72.40;;;;;;6237583;28;20253;-84
2023/10/29 13:52:51;;;;;;;4.40;3.57;;;14.10;72.40;;;;;;6255085;28;20773;-82
2023/10/29 13:56:04;;;;;;;3.67;3.37;;;14.10;72.30;;;;;;6241144;28;20245;-83
2023/10/29 13:59:08;;;;;;;3.63;3.53;;;14.00;72.80;;;;;;6235293;28;20230;-82
2023/10/29 14:02:11;;;;;;;4.00;3.80;;;14.00;72.40;;;;;;6241004;28;20611;-81
2023/10/29 14:05:14;;;;;;;4.00;3.77;;;14.00;72.50;;;;;;6239194;28;20285;-84
2023/10/29 14:08:17;;;;;;;4.67;4.47;;;14.00;72.60;;;;;;6238880;28;20319;-84
2023/10/29 14:11:24;;;;;;;4.13;3.77;;;14.10;72.10;;;;;;6262967;28;20232;-84
2023/10/29 14:14:33;;;;;;;3.67;3.47;;;14.00;72.30;;;;;;6253295;28;20849;-81
2023/10/29 14:17:36;;;;;;;4.30;3.77;;;14.00;72.40;;;;;;6242623;28;20331;-83
2023/10/29 14:20:40;;;;;;;3.60;3.50;;;14.00;72.60;;;;;;6254385;28;20241;-84
2023/10/29 14:23:43;;;;;;;4.20;3.80;;;14.00;72.40;;;;;;6253649;28;20233;-84
2023/10/29 14:26:50;;;;;;;3.20;3.00;;;14.00;72.50;;;;;;6244226;28;20242;-83
2023/10/29 14:29:54;;;;;;;2.93;2.90;;;14.00;72.80;;;;;;6248442;28;20246;-85
2023/10/29 14:32:59;;;;;;;3.53;3.40;;;14.00;72.30;;;;;;6260879;28;20759;-84
2023/10/29 14:36:03;;;;;;;3.97;3.77;;;14.00;72.60;;;;;;6233504;28;20230;-83
2023/10/29 14:39:07;;;;;;;5.43;4.17;;;13.90;73.00;;;;;;6252462;28;20394;-82
2023/10/29 14:42:12;;;;;;;4.33;4.13;;;13.90;73.40;;;;;;6257085;28;20234;-83
2023/10/29 14:45:15;;;;;;;4.07;3.87;;;13.80;73.60;;;;;;6242310;28;20250;-83
2023/10/29 14:48:18;;;;;;;5.13;4.30;;;13.80;73.20;;;;;;6253331;28;20246;-84
2023/10/29 14:51:22;;;;;;;4.07;3.97;;;13.90;73.00;;;;;;6261231;28;20809;-83
2023/10/29 14:54:25;;;;;;;3.87;3.67;;;13.90;73.20;;;;;;6250506;28;20851;-82
2023/10/29 14:57:30;;;;;;;8.50;7.23;;;13.80;73.50;;;;;;6238131;28;20261;-85
2023/10/29 15:00:34;;;;;;;3.20;3.00;;;13.80;73.60;;;;;;6259010;28;20233;-81
2023/10/29 15:03:37;;;;;;;3.73;3.43;;;13.80;73.70;;;;;;6244763;28;20237;-83
2023/10/29 15:06:41;;;;;;;3.17;3.07;;;13.80;73.90;;;;;;6257834;28;20234;-82
2023/10/29 15:09:44;;;;;;;3.77;3.57;;;13.80;73.80;;;;;;6249253;28;20231;-82
2023/10/29 15:12:49;;;;;;;5.43;5.03;;;13.80;73.90;;;;;;6239798;28;20813;-85
2023/10/29 15:15:52;;;;;;;10.20;9.30;;;13.70;74.10;;;;;;6263654;28;20249;-83
2023/10/29 15:18:55;;;;;;;4.00;3.70;;;13.70;74.10;;;;;;6248662;28;20306;-83
2023/10/29 15:21:59;;;;;;;3.40;3.10;;;13.70;74.40;;;;;;6257277;28;20238;-83
2023/10/29 15:25:06;;;;;;;3.87;3.67;;;13.60;74.60;;;;;;6254507;28;20281;-84
2023/10/29 15:28:10;;;;;;;8.47;7.77;;;13.60;74.70;;;;;;6246950;28;20326;-83
2023/10/29 15:31:13;;;;;;;3.97;3.77;;;13.70;74.50;;;;;;6245277;28;20304;-82
2023/10/29 15:34:17;;;;;;;5.67;4.97;;;13.70;74.40;;;;;;6253715;28;20234;-85
2023/10/29 15:37:23;;;;;;;4.90;4.10;;;13.60;74.70;;;;;;6259288;28;20265;-85
2023/10/29 15:40:26;;;;;;;4.50;4.10;;;13.60;74.90;;;;;;6249313;28;20918;-84
2023/10/29 15:43:31;;;;;;;4.20;3.80;;;13.60;75.20;;;;;;6239783;28;20234;-84
2023/10/29 15:46:37;;;;;;;4.47;3.87;;;13.60;75.10;;;;;;6244893;28;20241;-84
2023/10/29 15:49:40;;;;;;;6.97;5.73;;;13.60;75.30;;;;;;6244467;28;20616;-83
2023/10/29 15:52:43;;;;;;;9.07;7.50;;;13.60;75.50;;;;;;6248191;28;20226;-83
2023/10/29 15:55:47;;;;;;;12.23;7.40;;;13.60;75.50;;;;;;6247689;28;20285;-83
2023/10/29 15:58:54;;;;;;;9.87;7.40;;;13.50;76.00;;;;;;6254327;28;20303;-82
2023/10/29 16:01:57;;;;;;;8.67;6.20;;;13.50;76.50;;;;;;6244455;28;20242;-82
2023/10/29 16:05:01;;;;;;;5.93;5.33;;;13.50;77.10;;;;;;6256409;28;20268;-83